Time;durP1;ratioP1;P1;durP2;ratioP2;P2;SDS_P1;SDS_P2;PMS_P1;PMS_P2;Temp;Humidity;BMP_temperature;BMP_pressure;BME280_temperature;BME280_humidity;BME280_pressure;Samples;Min_cycle;Max_cycle;Signal;HPM_P1;HPM_P2
2022/07/12 00:00:29;;;;;;;;;;;22.40;89.60;;;;;;5077927;28;20468;-59
2022/07/12 00:02:54;;;;;;;;;;;22.40;89.60;;;;;;5097914;28;19916;-60
2022/07/12 00:05:20;;;;;;;;;;;22.30;89.50;;;;;;5097799;28;19916;-59
2022/07/12 00:07:45;;;;;;;;;;;22.40;90.00;;;;;;5097452;28;19916;-59
2022/07/12 00:10:10;;;;;;;;;;;22.40;89.50;;;;;;5097794;28;19909;-59
2022/07/12 00:12:36;;;;;;;;;;;22.40;89.50;;;;;;5097679;28;19908;-59
2022/07/12 00:15:01;;;;;;;;;;;22.30;89.40;;;;;;5097370;28;19908;-59
2022/07/12 00:17:27;;;;;;;;;;;22.40;89.50;;;;;;5097639;28;20410;-59
2022/07/12 00:19:52;;;;;;;;;;;22.30;89.40;;;;;;5097576;28;19930;-60
2022/07/12 00:22:18;;;;;;;;;;;22.30;89.50;;;;;;5097559;28;19908;-59
2022/07/12 00:24:43;;;;;;;;;;;22.40;89.50;;;;;;5079231;28;19912;-59
2022/07/12 00:27:09;;;;;;;;;;;22.30;89.40;;;;;;5097436;28;20318;-59
2022/07/12 00:29:34;;;;;;;;;;;22.30;89.40;;;;;;5079270;28;19912;-59
2022/07/12 00:32:00;;;;;;;;;;;22.30;89.40;;;;;;5096987;28;19908;-59
2022/07/12 00:34:25;;;;;;;;;;;22.30;89.40;;;;;;5097263;28;19947;-59
2022/07/12 00:36:51;;;;;;;;;;;22.40;89.50;;;;;;5097357;28;20262;-59
2022/07/12 00:39:16;;;;;;;;;;;22.30;89.40;;;;;;5096864;28;20445;-59
2022/07/12 00:41:42;;;;;;;;;;;22.30;89.40;;;;;;5079002;28;19919;-59
2022/07/12 00:44:08;;;;;;;;;;;22.30;89.40;;;;;;5097026;28;19915;-59
2022/07/12 00:46:34;;;;;;;;;;;22.30;89.40;;;;;;5097084;28;20018;-59
2022/07/12 00:48:59;;;;;;;;;;;22.30;89.40;;;;;;5096995;28;20004;-59
2022/07/12 00:51:25;;;;;;;;;;;22.30;89.40;;;;;;5096786;28;20323;-59
2022/07/12 00:53:51;;;;;;;;;;;22.30;89.40;;;;;;5096865;28;19962;-59
2022/07/12 00:56:16;;;;;;;;;;;22.40;89.50;;;;;;5078805;28;19995;-59
2022/07/12 00:58:43;;;;;;;;;;;22.30;89.30;;;;;;5096869;28;19920;-59
2022/07/12 01:01:09;;;;;;;;;;;22.30;89.30;;;;;;5096831;28;19961;-59
2022/07/12 01:03:35;;;;;;;;;;;22.30;89.40;;;;;;5096502;28;19912;-59
2022/07/12 01:06:01;;;;;;;;;;;22.30;89.40;;;;;;5096387;28;19919;-59
2022/07/12 01:08:27;;;;;;;;;;;22.30;89.40;;;;;;5096411;28;19934;-59
2022/07/12 01:10:52;;;;;;;;;;;22.30;89.40;;;;;;5078100;28;19909;-59
2022/07/12 01:13:18;;;;;;;;;;;22.30;89.40;;;;;;5095827;28;19950;-59
2022/07/12 01:15:44;;;;;;;;;;;22.30;89.30;;;;;;5096472;28;19929;-59
2022/07/12 01:18:09;;;;;;;;;;;22.30;89.30;;;;;;5096530;28;19950;-59
2022/07/12 01:20:35;;;;;;;;;;;22.30;89.40;;;;;;5096111;28;19919;-59
2022/07/12 01:23:01;;;;;;;;;;;22.30;89.40;;;;;;5096014;28;19960;-59
2022/07/12 01:25:26;;;;;;;;;;;22.30;89.40;;;;;;5096228;28;19959;-59
2022/07/12 01:27:52;;;;;;;;;;;22.30;89.40;;;;;;5096291;28;20006;-59
2022/07/12 01:30:18;;;;;;;;;;;22.30;89.30;;;;;;5096571;28;19998;-59
2022/07/12 01:32:44;;;;;;;;;;;22.30;89.30;;;;;;5096238;28;19908;-59
2022/07/12 01:35:09;;;;;;;;;;;22.30;89.30;;;;;;5095889;28;20363;-59
2022/07/12 01:37:36;;;;;;;;;;;22.30;89.30;;;;;;5096146;28;20366;-59
2022/07/12 01:40:04;;;;;;;;;;;22.30;89.30;;;;;;5096048;28;19961;-59
2022/07/12 01:42:30;;;;;;;;;;;22.30;89.40;;;;;;5095720;28;19915;-60
2022/07/12 01:44:55;;;;;;;;;;;22.30;89.30;;;;;;5095936;28;19938;-59
2022/07/12 01:47:23;;;;;;;;;;;22.30;89.40;;;;;;5095950;28;20406;-59
2022/07/12 01:49:49;;;;;;;;;;;22.30;89.40;;;;;;5096208;28;19908;-59
2022/07/12 01:52:14;;;;;;;;;;;22.30;89.40;;;;;;5095479;28;19916;-59
2022/07/12 01:54:40;;;;;;;;;;;22.30;89.40;;;;;;5095377;28;19956;-58
2022/07/12 01:57:06;;;;;;;;;;;22.30;89.40;;;;;;5095653;28;20347;-61
2022/07/12 01:59:31;;;;;;;;;;;22.30;89.40;;;;;;5095204;28;20390;-58
2022/07/12 02:01:57;;;;;;;;;;;22.30;89.40;;;;;;5095254;28;20080;-59
2022/07/12 02:04:22;;;;;;;;;;;22.30;89.40;;;;;;5095468;28;19931;-59
2022/07/12 02:06:48;;;;;;;;;;;22.30;89.40;;;;;;5095515;28;19912;-59
2022/07/12 02:09:14;;;;;;;;;;;22.30;89.40;;;;;;5095448;28;19909;-59
2022/07/12 02:11:42;;;;;;;;;;;22.30;89.40;;;;;;5095387;28;19943;-58
2022/07/12 02:14:08;;;;;;;;;;;22.30;89.40;;;;;;5095100;28;20292;-59
2022/07/12 02:16:33;;;;;;;;;;;22.30;89.40;;;;;;5095637;28;19965;-59
2022/07/12 02:18:59;;;;;;;;;;;22.30;89.40;;;;;;5095311;28;19955;-59
2022/07/12 02:21:25;;;;;;;;;;;22.30;89.40;;;;;;5095294;28;20133;-60
2022/07/12 02:23:50;;;;;;;;;;;22.20;89.40;;;;;;5095423;28;20236;-59
2022/07/12 02:26:16;;;;;;;;;;;22.30;89.40;;;;;;5094808;28;19974;-59
2022/07/12 02:28:41;;;;;;;;;;;22.30;89.50;;;;;;5095135;28;19912;-59
2022/07/12 02:31:08;;;;;;;;;;;22.30;89.40;;;;;;5095104;28;20419;-59
2022/07/12 02:33:33;;;;;;;;;;;22.30;89.40;;;;;;5094890;28;19913;-60
2022/07/12 02:35:59;;;;;;;;;;;22.30;89.40;;;;;;5094958;28;19994;-59
2022/07/12 02:38:25;;;;;;;;;;;22.30;89.40;;;;;;5094853;28;19918;-59
2022/07/12 02:40:53;;;;;;;;;;;22.30;89.40;;;;;;5094894;28;19908;-59
2022/07/12 02:43:28;;;;;;;;;;;22.30;89.40;;;;;;5094883;28;19944;-59
2022/07/12 02:45:56;;;;;;;;;;;22.30;89.40;;;;;;5094823;28;20000;-59
2022/07/12 02:48:22;;;;;;;;;;;22.30;89.50;;;;;;5094562;28;19912;-59
2022/07/12 02:50:47;;;;;;;;;;;22.30;89.50;;;;;;5076674;28;19912;-59
2022/07/12 02:53:14;;;;;;;;;;;22.20;89.40;;;;;;5094666;28;19908;-59
2022/07/12 02:55:40;;;;;;;;;;;22.20;89.40;;;;;;5094717;28;20003;-59
2022/07/12 02:58:08;;;;;;;;;;;22.20;89.40;;;;;;5094572;28;20358;-59
2022/07/12 03:00:34;;;;;;;;;;;22.20;89.40;;;;;;5094643;28;19912;-59
2022/07/12 03:03:00;;;;;;;;;;;22.30;89.50;;;;;;5094328;28;19994;-59
2022/07/12 03:05:26;;;;;;;;;;;22.20;89.40;;;;;;5094510;28;19916;-59
2022/07/12 03:07:51;;;;;;;;;;;22.20;89.40;;;;;;5094541;28;20024;-59
2022/07/12 03:10:17;;;;;;;;;;;22.20;89.50;;;;;;5094460;28;20343;-59
2022/07/12 03:12:42;;;;;;;;;;;22.20;89.40;;;;;;5075930;28;19957;-59
2022/07/12 03:15:08;;;;;;;;;;;22.20;89.50;;;;;;5094315;28;19931;-60
2022/07/12 03:17:34;;;;;;;;;;;22.30;89.50;;;;;;5094328;28;20014;-59
2022/07/12 03:19:59;;;;;;;;;;;22.20;89.50;;;;;;5094289;28;19908;-59
2022/07/12 03:22:25;;;;;;;;;;;22.30;89.50;;;;;;5094066;28;20293;-59
2022/07/12 03:24:50;;;;;;;;;;;22.20;89.40;;;;;;5094176;28;19919;-59
2022/07/12 03:27:16;;;;;;;;;;;22.20;89.50;;;;;;5076278;28;19912;-59
2022/07/12 03:29:42;;;;;;;;;;;22.20;89.50;;;;;;5093986;28;19908;-59
2022/07/12 03:32:07;;;;;;;;;;;22.20;89.50;;;;;;5094001;28;19908;-59
2022/07/12 03:34:33;;;;;;;;;;;22.20;89.40;;;;;;5094290;28;19919;-58
2022/07/12 03:36:58;;;;;;;;;;;22.20;89.50;;;;;;5098014;28;19908;-59
2022/07/12 03:39:24;;;;;;;;;;;22.20;89.50;;;;;;5080282;28;19955;-59
2022/07/12 03:41:49;;;;;;;;;;;22.20;89.50;;;;;;5098074;28;19999;-59
2022/07/12 03:44:15;;;;;;;;;;;22.20;89.50;;;;;;5098013;28;19919;-59
2022/07/12 03:46:41;;;;;;;;;;;22.20;89.50;;;;;;5098267;28;19912;-59
2022/07/12 03:49:06;;;;;;;;;;;22.20;89.50;;;;;;5098154;28;20383;-59
2022/07/12 03:51:31;;;;;;;;;;;22.20;89.50;;;;;;5098265;28;19908;-59
2022/07/12 03:53:57;;;;;;;;;;;22.20;89.50;;;;;;5098092;28;20004;-58
2022/07/12 03:59:07;;;;;;;;;;;22.20;89.50;;;;;;5098060;28;19988;-59
2022/07/12 04:01:32;;;;;;;;;;;22.20;89.50;;;;;;5097929;28;20374;-59
2022/07/12 04:03:58;;;;;;;;;;;22.20;89.50;;;;;;5098082;28;19916;-59
2022/07/12 04:06:23;;;;;;;;;;;22.20;89.60;;;;;;5097645;28;19912;-59
2022/07/12 04:08:49;;;;;;;;;;;22.20;89.60;;;;;;5097791;28;19994;-59
2022/07/12 04:11:14;;;;;;;;;;;22.30;89.70;;;;;;5097709;28;19919;-59
2022/07/12 04:13:40;;;;;;;;;;;22.30;89.60;;;;;;5097286;28;20381;-62
2022/07/12 04:16:05;;;;;;;;;;;22.30;89.60;;;;;;5097288;28;19995;-60
2022/07/12 04:18:31;;;;;;;;;;;22.30;89.70;;;;;;5097407;28;19969;-60
2022/07/12 04:20:57;;;;;;;;;;;22.30;89.70;;;;;;5097243;28;20278;-60
2022/07/12 04:23:22;;;;;;;;;;;22.30;89.60;;;;;;5097431;28;19908;-60
2022/07/12 04:25:48;;;;;;;;;;;22.30;89.60;;;;;;5096950;28;19920;-61
2022/07/12 04:28:13;;;;;;;;;;;22.20;89.60;;;;;;5097073;28;19935;-60
2022/07/12 04:30:39;;;;;;;;;;;22.30;89.60;;;;;;5096979;28;19911;-60
2022/07/12 04:33:05;;;;;;;;;;;22.30;89.70;;;;;;5096778;28;19915;-60
2022/07/12 04:35:31;;;;;;;;;;;22.30;89.70;;;;;;5097325;28;19909;-60
2022/07/12 04:37:56;;;;;;;;;;;22.30;89.70;;;;;;5096962;28;19908;-58
2022/07/12 04:40:22;;;;;;;;;;;22.30;89.60;;;;;;5096738;28;19915;-58
2022/07/12 04:42:47;;;;;;;;;;;22.30;89.60;;;;;;5096541;28;20378;-57
2022/07/12 04:45:12;;;;;;;;;;;22.30;89.60;;;;;;5096675;28;19918;-61
2022/07/12 04:47:38;;;;;;;;;;;22.30;89.60;;;;;;5077440;28;19969;-59
2022/07/12 04:50:06;;;;;;;;;;;22.30;89.70;;;;;;5096923;28;20230;-59
2022/07/12 04:52:31;;;;;;;;;;;22.30;89.70;;;;;;5096537;28;20003;-59
2022/07/12 04:54:57;;;;;;;;;;;22.30;89.70;;;;;;5096399;28;19955;-59
2022/07/12 04:57:22;;;;;;;;;;;22.30;89.60;;;;;;5096030;28;19908;-59
2022/07/12 04:59:48;;;;;;;;;;;22.30;89.70;;;;;;5096307;28;20373;-59
2022/07/12 05:02:13;;;;;;;;;;;22.30;89.70;;;;;;5096664;28;19991;-59
2022/07/12 05:04:39;;;;;;;;;;;22.30;89.70;;;;;;5096224;28;19919;-59
2022/07/12 05:07:04;;;;;;;;;;;22.30;89.80;;;;;;5096541;28;19912;-59
2022/07/12 05:09:30;;;;;;;;;;;22.30;89.80;;;;;;5095909;28;20002;-59
2022/07/12 05:11:55;;;;;;;;;;;22.30;89.80;;;;;;5096096;28;19912;-59
2022/07/12 05:14:20;;;;;;;;;;;22.30;89.80;;;;;;5096217;28;19908;-59
2022/07/12 05:16:46;;;;;;;;;;;22.30;89.80;;;;;;5096097;28;19908;-59
2022/07/12 05:19:11;;;;;;;;;;;22.30;89.80;;;;;;5095822;28;19912;-60
2022/07/12 05:21:37;;;;;;;;;;;22.30;89.90;;;;;;5095778;28;20277;-59
2022/07/12 05:24:03;;;;;;;;;;;22.30;89.80;;;;;;5095629;28;19912;-59
2022/07/12 05:26:29;;;;;;;;;;;22.30;89.80;;;;;;5095828;28;19912;-59
2022/07/12 05:28:55;;;;;;;;;;;22.30;89.80;;;;;;5095961;28;19916;-60
2022/07/12 05:31:20;;;;;;;;;;;22.30;89.80;;;;;;5095721;28;20481;-60
2022/07/12 05:33:46;;;;;;;;;;;22.30;89.80;;;;;;5095704;28;19931;-61
2022/07/12 05:36:11;;;;;;;;;;;22.30;89.80;;;;;;5095491;28;20374;-61
2022/07/12 05:38:36;;;;;;;;;;;22.30;89.90;;;;;;5095532;28;20363;-60
2022/07/12 05:41:02;;;;;;;;;;;22.30;89.90;;;;;;5095805;28;19931;-58
2022/07/12 05:43:27;;;;;;;;;;;22.30;89.90;;;;;;5095574;28;19915;-61
2022/07/12 05:45:53;;;;;;;;;;;22.30;89.90;;;;;;5095341;28;20347;-60
2022/07/12 05:48:18;;;;;;;;;;;22.30;89.90;;;;;;5094982;28;19912;-60
2022/07/12 05:50:44;;;;;;;;;;;22.30;89.90;;;;;;5095260;28;20017;-60
2022/07/12 05:53:21;;;;;;;;;;;22.30;89.80;;;;;;5077196;28;20364;-60
2022/07/12 05:55:48;;;;;;;;;;;22.30;89.80;;;;;;5077154;28;19916;-59
2022/07/12 05:58:13;;;;;;;;;;;22.30;89.90;;;;;;5094650;28;20011;-60
2022/07/12 06:00:39;;;;;;;;;;;22.30;89.80;;;;;;5095062;28;19959;-60
2022/07/12 06:03:04;;;;;;;;;;;22.30;89.80;;;;;;5094878;28;20318;-60
2022/07/12 06:05:29;;;;;;;;;;;22.30;89.80;;;;;;5094839;28;19912;-59
2022/07/12 06:07:55;;;;;;;;;;;22.30;89.80;;;;;;5095198;28;19916;-60
2022/07/12 06:10:21;;;;;;;;;;;22.30;89.80;;;;;;5094800;28;19908;-60
2022/07/12 06:12:46;;;;;;;;;;;22.30;89.70;;;;;;5094834;28;19908;-60
2022/07/12 06:15:12;;;;;;;;;;;22.30;89.70;;;;;;5076473;28;19908;-60
2022/07/12 06:17:38;;;;;;;;;;;22.30;89.70;;;;;;5094567;28;19908;-60
2022/07/12 06:20:03;;;;;;;;;;;22.30;89.70;;;;;;5094646;28;19908;-60
2022/07/12 06:22:29;;;;;;;;;;;22.30;89.70;;;;;;5094665;28;20274;-60
2022/07/12 06:24:54;;;;;;;;;;;22.30;89.70;;;;;;5076532;28;19956;-60
2022/07/12 06:27:20;;;;;;;;;;;22.30;89.70;;;;;;5094301;28;19967;-60
2022/07/12 06:29:48;;;;;;;;;;;22.30;89.70;;;;;;5095041;28;19919;-60
2022/07/12 06:32:16;;;;;;;;;;;22.30;89.70;;;;;;5094408;28;19915;-60
2022/07/12 06:34:42;;;;;;;;;;;22.30;89.70;;;;;;5094328;28;19908;-60
2022/07/12 06:37:08;;;;;;;;;;;22.30;89.80;;;;;;5094433;28;20354;-60
2022/07/12 06:39:37;;;;;;;;;;;22.30;89.70;;;;;;5076348;28;19908;-60
2022/07/12 06:42:03;;;;;;;;;;;22.30;89.80;;;;;;5076208;28;19908;-60
2022/07/12 06:44:32;;;;;;;;;;;22.30;89.80;;;;;;5094180;28;19915;-60
2022/07/12 06:46:58;;;;;;;;;;;22.30;89.70;;;;;;5094318;28;19912;-60
2022/07/12 06:49:24;;;;;;;;;;;22.30;89.70;;;;;;5093995;28;20350;-60
2022/07/12 06:51:49;;;;;;;;;;;22.30;89.70;;;;;;5094198;28;19961;-60
2022/07/12 06:54:15;;;;;;;;;;;22.30;89.70;;;;;;5094599;28;19912;-60
2022/07/12 06:56:41;;;;;;;;;;;22.30;89.70;;;;;;5093948;28;19908;-60
2022/07/12 06:59:10;;;;;;;;;;;22.30;89.70;;;;;;5094435;28;19927;-60
2022/07/12 07:01:36;;;;;;;;;;;22.30;89.80;;;;;;5075941;28;20022;-61
2022/07/12 07:04:02;;;;;;;;;;;22.30;89.70;;;;;;5093805;28;19973;-60
2022/07/12 07:06:27;;;;;;;;;;;22.30;89.70;;;;;;5094082;28;19912;-60
2022/07/12 07:08:53;;;;;;;;;;;22.30;89.80;;;;;;5093801;28;19955;-60
2022/07/12 07:11:18;;;;;;;;;;;22.30;89.70;;;;;;5093425;28;19915;-60
2022/07/12 07:13:43;;;;;;;;;;;22.30;89.70;;;;;;5094039;28;19995;-60
2022/07/12 07:16:09;;;;;;;;;;;22.30;89.70;;;;;;5093613;28;19916;-60
2022/07/12 07:18:34;;;;;;;;;;;22.30;89.70;;;;;;5093584;28;20401;-60
2022/07/12 07:21:00;;;;;;;;;;;22.30;89.70;;;;;;5093251;28;19954;-60
2022/07/12 07:23:25;;;;;;;;;;;22.30;89.70;;;;;;5093774;28;19913;-60
2022/07/12 07:25:51;;;;;;;;;;;22.30;89.70;;;;;;5093418;28;19919;-60
2022/07/12 07:28:16;;;;;;;;;;;22.30;89.70;;;;;;5094000;28;20321;-61
2022/07/12 07:30:54;;;;;;;;;;;22.30;89.70;;;;;;5093269;28;19950;-59
2022/07/12 07:33:20;;;;;;;;;;;22.30;89.70;;;;;;5093717;28;19908;-60
2022/07/12 07:35:46;;;;;;;;;;;22.30;89.70;;;;;;5093981;28;19912;-60
2022/07/12 07:38:12;;;;;;;;;;;22.30;89.70;;;;;;5093267;28;19908;-60
2022/07/12 07:40:37;;;;;;;;;;;22.30;89.70;;;;;;5093933;28;19909;-60
2022/07/12 07:43:03;;;;;;;;;;;22.30;89.70;;;;;;5093757;28;19992;-60
2022/07/12 07:45:28;;;;;;;;;;;22.40;89.70;;;;;;5093569;28;20366;-60
2022/07/12 07:47:53;;;;;;;;;;;22.40;89.70;;;;;;5093672;28;20015;-60
2022/07/12 07:50:19;;;;;;;;;;;22.40;89.70;;;;;;5075560;28;19908;-60
2022/07/12 07:52:45;;;;;;;;;;;22.40;89.70;;;;;;5093665;28;19912;-60
2022/07/12 07:55:11;;;;;;;;;;;22.30;89.70;;;;;;5093538;28;19953;-60
2022/07/12 07:57:36;;;;;;;;;;;22.40;89.70;;;;;;5093504;28;19995;-60
2022/07/12 08:00:02;;;;;;;;;;;22.40;89.70;;;;;;5093299;28;20037;-60
2022/07/12 08:02:28;;;;;;;;;;;22.30;89.70;;;;;;5093213;28;19908;-60
2022/07/12 08:04:53;;;;;;;;;;;22.40;89.70;;;;;;5093763;28;19923;-58
2022/07/12 08:07:19;;;;;;;;;;;22.30;89.70;;;;;;5093081;28;19912;-60
2022/07/12 08:09:44;;;;;;;;;;;22.40;89.70;;;;;;5093529;28;19908;-60
2022/07/12 08:12:09;;;;;;;;;;;22.40;89.70;;;;;;5093632;28;20259;-59
2022/07/12 08:14:35;;;;;;;;;;;22.30;89.70;;;;;;5093047;28;19919;-59
2022/07/12 08:17:00;;;;;;;;;;;22.30;89.70;;;;;;5093371;28;19915;-60
2022/07/12 08:19:26;;;;;;;;;;;22.40;89.70;;;;;;5093000;28;20310;-59
2022/07/12 08:21:51;;;;;;;;;;;22.30;89.70;;;;;;5095841;28;20006;-60
2022/07/12 08:24:17;;;;;;;;;;;22.40;89.70;;;;;;5097291;28;20316;-60
2022/07/12 08:26:42;;;;;;;;;;;22.40;89.70;;;;;;5097236;28;19912;-59
2022/07/12 08:29:08;;;;;;;;;;;22.40;89.70;;;;;;5097085;28;19994;-60
2022/07/12 08:31:33;;;;;;;;;;;22.40;89.70;;;;;;5097178;28;19914;-60
2022/07/12 08:33:59;;;;;;;;;;;22.40;89.80;;;;;;5096992;28;20266;-60
2022/07/12 08:36:24;;;;;;;;;;;22.40;89.70;;;;;;5078670;28;19917;-60
2022/07/12 08:38:50;;;;;;;;;;;22.40;89.70;;;;;;5096885;28;19948;-60
2022/07/12 08:41:15;;;;;;;;;;;22.30;90.10;;;;;;5096446;28;19912;-59
2022/07/12 08:43:41;;;;;;;;;;;22.40;89.70;;;;;;5096635;28;19908;-60
2022/07/12 08:46:08;;;;;;;;;;;22.30;89.70;;;;;;5096328;28;19912;-60
2022/07/12 08:48:34;;;;;;;;;;;22.30;89.70;;;;;;5096690;28;20028;-60
2022/07/12 08:51:05;;;;;;;;;;;22.40;89.80;;;;;;5096512;28;20339;-60
2022/07/12 08:53:31;;;;;;;;;;;22.40;89.70;;;;;;5096776;28;19916;-60
2022/07/12 08:55:57;;;;;;;;;;;22.40;89.80;;;;;;5096718;28;20331;-60
2022/07/12 08:58:22;;;;;;;;;;;22.40;89.80;;;;;;5096231;28;20389;-60
2022/07/12 09:00:48;;;;;;;;;;;22.30;90.10;;;;;;5096621;28;19908;-60
2022/07/12 09:03:14;;;;;;;;;;;22.40;89.80;;;;;;5096929;28;19908;-59
2022/07/12 09:05:47;;;;;;;;;;;22.30;89.80;;;;;;5096013;28;20040;-60
2022/07/12 09:08:12;;;;;;;;;;;22.30;89.80;;;;;;5096162;28;20385;-60
2022/07/12 09:10:50;;;;;;;;;;;22.30;90.10;;;;;;5078394;28;19908;-60
2022/07/12 09:13:16;;;;;;;;;;;22.30;89.80;;;;;;5078467;28;20270;-59
2022/07/12 09:15:41;;;;;;;;;;;22.30;89.80;;;;;;5096023;28;19915;-60
2022/07/12 09:18:14;;;;;;;;;;;22.30;89.90;;;;;;5096034;28;20371;-60
2022/07/12 09:20:41;;;;;;;;;;;22.30;89.90;;;;;;5096073;28;19956;-60
2022/07/12 09:23:08;;;;;;;;;;;22.30;89.90;;;;;;5095646;28;20355;-60
2022/07/12 09:25:34;;;;;;;;;;;22.30;89.90;;;;;;5095564;28;19915;-60
2022/07/12 09:28:02;;;;;;;;;;;22.30;89.90;;;;;;5095686;28;19912;-59
2022/07/12 09:30:28;;;;;;;;;;;22.30;90.00;;;;;;5095889;28;19915;-60
2022/07/12 09:38:26;;;;;;;;;;;22.30;90.00;;;;;;5095838;28;19919;-60
2022/07/12 09:40:53;;;;;;;;;;;22.30;89.90;;;;;;5095746;28;19909;-60
2022/07/12 09:43:19;;;;;;;;;;;22.30;89.90;;;;;;5095777;28;19915;-60
2022/07/12 09:45:48;;;;;;;;;;;22.30;90.00;;;;;;5095817;28;19916;-60
2022/07/12 09:48:15;;;;;;;;;;;22.30;90.00;;;;;;5095478;28;19912;-60
2022/07/12 09:50:41;;;;;;;;;;;22.30;90.00;;;;;;5095494;28;19915;-60
2022/07/12 09:53:09;;;;;;;;;;;22.30;90.00;;;;;;5077567;28;20282;-60
2022/07/12 09:55:36;;;;;;;;;;;22.30;90.00;;;;;;5095391;28;19915;-60
2022/07/12 09:58:02;;;;;;;;;;;22.30;90.00;;;;;;5095323;28;19955;-60
2022/07/12 10:00:29;;;;;;;;;;;22.30;90.00;;;;;;5095067;28;19916;-59
2022/07/12 10:02:55;;;;;;;;;;;22.30;90.00;;;;;;5095358;28;19992;-59
2022/07/12 10:05:24;;;;;;;;;;;22.30;89.90;;;;;;5095401;28;19919;-59
2022/07/12 10:07:50;;;;;;;;;;;22.30;89.90;;;;;;5095092;28;19920;-59
2022/07/12 10:10:16;;;;;;;;;;;22.30;89.90;;;;;;5095456;28;19928;-59
2022/07/12 10:12:43;;;;;;;;;;;22.30;89.90;;;;;;5094858;28;19909;-59
2022/07/12 10:15:15;;;;;;;;;;;22.30;89.90;;;;;;5094558;28;19915;-58
2022/07/12 10:17:41;;;;;;;;;;;22.30;89.90;;;;;;5095162;28;19908;-59
2022/07/12 10:20:17;;;;;;;;;;;22.30;89.90;;;;;;5094950;28;19908;-59
2022/07/12 10:22:43;;;;;;;;;;;22.30;89.90;;;;;;5094829;28;20059;-59
2022/07/12 10:25:40;;;;;;;;;;;22.30;89.90;;;;;;5094885;28;20027;-59
2022/07/12 10:28:06;;;;;;;;;;;22.30;89.90;;;;;;5060728;28;19970;-59
2022/07/12 10:30:40;;;;;;;;;;;22.40;89.90;;;;;;5076628;28;19912;-59
2022/07/12 10:33:13;;;;;;;;;;;22.40;89.90;;;;;;5094506;28;20342;-59
2022/07/12 10:35:39;;;;;;;;;;;22.40;89.90;;;;;;5094842;28;19908;-59
2022/07/12 10:38:13;;;;;;;;;;;22.40;89.90;;;;;;5094600;28;19908;-59
2022/07/12 10:40:39;;;;;;;;;;;22.40;89.90;;;;;;5076105;28;19908;-59
2022/07/12 10:43:05;;;;;;;;;;;22.40;89.90;;;;;;5094149;28;19908;-59
2022/07/12 10:45:30;;;;;;;;;;;22.40;89.90;;;;;;5094434;28;20274;-59
2022/07/12 10:47:57;;;;;;;;;;;22.40;89.90;;;;;;5094575;28;20113;-59
2022/07/12 10:50:40;;;;;;;;;;;22.40;89.90;;;;;;5094294;28;19959;-59
2022/07/12 10:53:18;;;;;;;;;;;22.40;89.90;;;;;;5076390;28;19960;-59
2022/07/12 10:56:06;;;;;;;;;;;22.40;89.90;;;;;;5094466;28;19908;-59
2022/07/12 10:58:35;;;;;;;;;;;22.40;89.90;;;;;;5094325;28;20041;-59
2022/07/12 11:01:05;;;;;;;;;;;22.40;89.90;;;;;;5094231;28;19913;-59
2022/07/12 11:03:37;;;;;;;;;;;22.40;89.90;;;;;;5094342;28;19915;-59
2022/07/12 11:06:03;;;;;;;;;;;22.40;89.90;;;;;;5075838;28;20270;-59
2022/07/12 11:08:31;;;;;;;;;;;22.40;89.90;;;;;;5075961;28;19913;-59
2022/07/12 11:10:57;;;;;;;;;;;22.40;89.90;;;;;;5093929;28;19908;-60
2022/07/12 11:13:24;;;;;;;;;;;22.40;89.90;;;;;;5094056;28;20000;-60
2022/07/12 11:15:56;;;;;;;;;;;22.40;89.90;;;;;;5094137;28;19914;-60
2022/07/12 11:18:31;;;;;;;;;;;22.40;89.90;;;;;;5094160;28;19998;-59
2022/07/12 11:20:57;;;;;;;;;;;22.40;89.90;;;;;;5093791;28;19908;-60
2022/07/12 11:23:26;;;;;;;;;;;22.40;89.90;;;;;;5094089;28;19915;-60
2022/07/12 11:26:02;;;;;;;;;;;22.40;89.90;;;;;;5093649;28;20332;-60
2022/07/12 11:28:28;;;;;;;;;;;22.40;89.90;;;;;;5093649;28;19923;-60
2022/07/12 11:31:00;;;;;;;;;;;22.40;89.90;;;;;;5093894;28;20021;-60
2022/07/12 11:33:26;;;;;;;;;;;22.40;89.90;;;;;;5075772;28;19958;-60
2022/07/12 11:35:52;;;;;;;;;;;22.40;89.90;;;;;;5093282;28;19908;-60
2022/07/12 11:38:27;;;;;;;;;;;22.40;89.90;;;;;;5093765;28;20355;-59
2022/07/12 11:40:56;;;;;;;;;;;22.40;89.90;;;;;;5093847;28;19908;-60
2022/07/12 11:43:22;;;;;;;;;;;22.40;89.80;;;;;;5093647;28;19908;-60
2022/07/12 11:45:48;;;;;;;;;;;22.40;89.80;;;;;;5093567;28;19913;-60
2022/07/12 11:48:14;;;;;;;;;;;22.40;89.90;;;;;;5093822;28;20275;-60
2022/07/12 11:50:42;;;;;;;;;;;22.40;89.80;;;;;;5093479;28;20056;-60
2022/07/12 11:53:14;;;;;;;;;;;22.40;89.80;;;;;;5093824;28;20007;-60
2022/07/12 11:55:46;;;;;;;;;;;22.40;89.80;;;;;;5094341;28;19915;-60
2022/07/12 11:58:13;;;;;;;;;;;22.40;89.80;;;;;;5097924;28;19968;-60
2022/07/12 12:00:38;;;;;;;;;;;22.40;89.90;;;;;;5097726;28;19908;-60
2022/07/12 12:03:04;;;;;;;;;;;22.40;89.80;;;;;;5079571;28;19915;-60
2022/07/12 12:05:30;;;;;;;;;;;22.40;89.80;;;;;;5097267;28;19919;-60
2022/07/12 12:07:55;;;;;;;;;;;22.40;89.80;;;;;;5097232;28;19969;-60
2022/07/12 12:10:21;;;;;;;;;;;22.40;89.80;;;;;;5097332;28;19916;-60
2022/07/12 12:12:51;;;;;;;;;;;22.40;89.80;;;;;;5097199;28;19915;-60
2022/07/12 12:15:18;;;;;;;;;;;22.40;89.80;;;;;;5079294;28;19916;-60
2022/07/12 12:17:50;;;;;;;;;;;22.40;89.80;;;;;;5097044;28;19915;-60
2022/07/12 12:20:17;;;;;;;;;;;22.40;90.10;;;;;;5097058;28;19946;-60
2022/07/12 12:22:44;;;;;;;;;;;22.40;89.80;;;;;;5096749;28;20227;-60
2022/07/12 12:25:13;;;;;;;;;;;22.40;89.80;;;;;;5096640;28;20472;-60
2022/07/12 12:27:42;;;;;;;;;;;22.40;89.80;;;;;;5096830;28;19912;-60
2022/07/12 12:30:08;;;;;;;;;;;22.40;89.80;;;;;;5097134;28;19908;-60
2022/07/12 12:32:52;;;;;;;;;;;22.40;89.80;;;;;;5097195;28;20361;-60
2022/07/12 12:35:19;;;;;;;;;;;22.40;89.80;;;;;;5096956;28;19961;-60
2022/07/12 12:37:55;;;;;;;;;;;22.40;89.80;;;;;;5096941;28;19935;-60
2022/07/12 12:40:21;;;;;;;;;;;22.50;89.90;;;;;;5096978;28;19908;-60
2022/07/12 12:42:47;;;;;;;;;;;22.40;89.80;;;;;;5078703;28;19915;-60
2022/07/12 12:45:25;;;;;;;;;;;22.40;89.80;;;;;;5096682;28;19919;-59
2022/07/12 12:48:03;;;;;;;;;;;22.40;89.80;;;;;;5096696;28;20346;-60
2022/07/12 12:50:45;;;;;;;;;;;22.40;89.80;;;;;;5096723;28;19908;-59
2022/07/12 12:53:11;;;;;;;;;;;22.40;89.80;;;;;;5096652;28;19908;-60
2022/07/12 12:55:37;;;;;;;;;;;22.40;89.80;;;;;;5097027;28;19908;-60
2022/07/12 12:58:02;;;;;;;;;;;22.40;89.80;;;;;;5096907;28;20231;-60
2022/07/12 13:00:29;;;;;;;;;;;22.50;89.80;;;;;;5096663;28;20359;-60
2022/07/12 13:02:57;;;;;;;;;;;22.40;89.80;;;;;;5096160;28;19908;-60
2022/07/12 13:05:23;;;;;;;;;;;22.40;89.80;;;;;;5096277;28;19912;-60
2022/07/12 13:07:48;;;;;;;;;;;22.40;89.80;;;;;;5095103;28;19920;-60
2022/07/12 13:10:14;;;;;;;;;;;22.40;89.80;;;;;;5096004;28;19908;-60
2022/07/12 13:12:39;;;;;;;;;;;22.50;90.10;;;;;;5096721;28;20347;-60
2022/07/12 13:15:07;;;;;;;;;;;22.40;89.80;;;;;;5096197;28;19912;-60
2022/07/12 13:17:33;;;;;;;;;;;22.50;89.80;;;;;;5095998;28;19912;-60
2022/07/12 13:19:58;;;;;;;;;;;22.40;89.80;;;;;;5095884;28;20347;-60
2022/07/12 13:22:24;;;;;;;;;;;22.40;89.80;;;;;;5095910;28;19908;-60
2022/07/12 13:24:49;;;;;;;;;;;22.40;89.80;;;;;;5095617;28;20263;-60
2022/07/12 13:27:15;;;;;;;;;;;22.50;89.80;;;;;;5095727;28;20002;-60
2022/07/12 13:29:40;;;;;;;;;;;22.50;90.10;;;;;;5077909;28;19908;-60
2022/07/12 13:32:06;;;;;;;;;;;22.50;89.90;;;;;;5095622;28;20371;-60
2022/07/12 13:34:31;;;;;;;;;;;22.50;89.90;;;;;;5095894;28;19908;-59
2022/07/12 13:36:57;;;;;;;;;;;22.50;89.90;;;;;;5095794;28;20350;-60
2022/07/12 13:42:07;;;;;;;;;;;22.50;89.80;;;;;;5095853;28;19953;-60
2022/07/12 13:44:32;;;;;;;;;;;22.50;89.80;;;;;;5095540;28;19912;-60
2022/07/12 13:46:58;;;;;;;;;;;22.50;89.90;;;;;;5095677;28;20274;-60
2022/07/12 13:49:23;;;;;;;;;;;22.50;89.80;;;;;;5095269;28;19908;-60
2022/07/12 13:51:49;;;;;;;;;;;22.40;89.80;;;;;;5095712;28;19991;-60
2022/07/12 13:54:14;;;;;;;;;;;22.50;89.90;;;;;;5095349;28;20355;-60
2022/07/12 13:56:40;;;;;;;;;;;22.40;89.80;;;;;;5095301;28;19908;-60
2022/07/12 13:59:05;;;;;;;;;;;22.40;89.80;;;;;;5095500;28;19970;-60
2022/07/12 14:01:31;;;;;;;;;;;22.40;90.10;;;;;;5095185;28;19930;-60
2022/07/12 14:03:57;;;;;;;;;;;22.50;89.80;;;;;;5077259;28;19909;-60
2022/07/12 14:06:23;;;;;;;;;;;22.50;89.90;;;;;;5095326;28;20362;-60
2022/07/12 14:08:49;;;;;;;;;;;22.40;89.80;;;;;;5094846;28;19952;-60
2022/07/12 14:11:15;;;;;;;;;;;22.50;89.90;;;;;;5094999;28;19953;-60
2022/07/12 14:13:41;;;;;;;;;;;22.50;89.90;;;;;;5094830;28;20341;-60
2022/07/12 14:16:07;;;;;;;;;;;22.50;89.90;;;;;;5095078;28;19943;-59
2022/07/12 14:18:32;;;;;;;;;;;22.50;89.80;;;;;;5094810;28;19995;-59
2022/07/12 14:20:58;;;;;;;;;;;22.50;89.90;;;;;;5094555;28;19950;-60
2022/07/12 14:23:24;;;;;;;;;;;22.50;89.90;;;;;;5094979;28;19908;-59